sensor_id;sensor_type;location;lat;lon;timestamp;pressure;altitude;pressure_sealevel;temperature;humidity
42415;BME280;28058;46.344;17.786;2023-04-28T00:01:36;118336.50;;;-144.97;100.00
42415;BME280;28058;46.344;17.786;2023-04-28T00:04:03;118336.50;;;-144.97;100.00
42415;BME280;28058;46.344;17.786;2023-04-28T00:06:30;118336.50;;;-144.97;100.00
42415;BME280;28058;46.344;17.786;2023-04-28T00:09:00;118336.50;;;-144.97;100.00
42415;BME280;28058;46.344;17.786;2023-04-28T00:11:27;118336.50;;;-144.97;100.00
42415;BME280;28058;46.344;17.786;2023-04-28T00:13:53;118336.50;;;-144.97;98.15
42415;BME280;28058;46.344;17.786;2023-04-28T00:16:20;118336.50;;;-144.97;100.00
42415;BME280;28058;46.344;17.786;2023-04-28T00:18:47;118336.50;;;-144.97;100.00
42415;BME280;28058;46.344;17.786;2023-04-28T00:21:14;118336.50;;;-144.97;100.00
42415;BME280;28058;46.344;17.786;2023-04-28T00:23:40;118336.50;;;-144.97;100.00
42415;BME280;28058;46.344;17.786;2023-04-28T00:26:07;118336.50;;;-144.97;100.00
42415;BME280;28058;46.344;17.786;2023-04-28T00:28:35;118336.50;;;-144.97;100.00
42415;BME280;28058;46.344;17.786;2023-04-28T00:31:01;118336.50;;;-144.97;100.00
42415;BME280;28058;46.344;17.786;2023-04-28T00:33:28;118336.50;;;-144.97;100.00
42415;BME280;28058;46.344;17.786;2023-04-28T00:35:58;118336.50;;;-144.97;100.00
42415;BME280;28058;46.344;17.786;2023-04-28T00:38:26;118336.50;;;-144.97;100.00
42415;BME280;28058;46.344;17.786;2023-04-28T00:40:53;118336.50;;;-144.97;100.00
42415;BME280;28058;46.344;17.786;2023-04-28T00:43:20;118336.50;;;-144.97;100.00
42415;BME280;28058;46.344;17.786;2023-04-28T00:45:50;118336.50;;;-144.97;100.00
42415;BME280;28058;46.344;17.786;2023-04-28T00:48:17;118336.50;;;-144.97;100.00
42415;BME280;28058;46.344;17.786;2023-04-28T00:50:44;118336.50;;;-144.97;100.00
42415;BME280;28058;46.344;17.786;2023-04-28T00:53:11;118336.50;;;-144.97;100.00
42415;BME280;28058;46.344;17.786;2023-04-28T00:55:38;118336.50;;;-144.97;100.00
42415;BME280;28058;46.344;17.786;2023-04-28T00:58:05;118336.50;;;-144.97;100.00
42415;BME280;28058;46.344;17.786;2023-04-28T01:00:32;118336.50;;;-144.97;100.00
42415;BME280;28058;46.344;17.786;2023-04-28T01:02:59;118336.50;;;-144.97;100.00
42415;BME280;28058;46.344;17.786;2023-04-28T01:05:27;118336.50;;;-144.97;100.00
42415;BME280;28058;46.344;17.786;2023-04-28T01:07:54;118336.50;;;-144.97;100.00
42415;BME280;28058;46.344;17.786;2023-04-28T01:10:21;118336.50;;;-144.97;100.00
42415;BME280;28058;46.344;17.786;2023-04-28T01:12:48;118336.50;;;-144.97;100.00
42415;BME280;28058;46.344;17.786;2023-04-28T01:15:16;118336.50;;;-144.97;100.00
42415;BME280;28058;46.344;17.786;2023-04-28T01:17:43;118336.50;;;-144.97;100.00
42415;BME280;28058;46.344;17.786;2023-04-28T01:20:10;118336.50;;;-144.97;100.00
42415;BME280;28058;46.344;17.786;2023-04-28T01:22:40;118336.50;;;-144.97;100.00
42415;BME280;28058;46.344;17.786;2023-04-28T01:25:07;118336.50;;;-144.97;100.00
42415;BME280;28058;46.344;17.786;2023-04-28T01:27:34;118336.50;;;-144.97;100.00
42415;BME280;28058;46.344;17.786;2023-04-28T01:30:00;118336.50;;;-144.97;100.00
42415;BME280;28058;46.344;17.786;2023-04-28T01:32:27;118336.50;;;-144.97;100.00
42415;BME280;28058;46.344;17.786;2023-04-28T01:34:54;118336.50;;;-144.97;100.00
42415;BME280;28058;46.344;17.786;2023-04-28T01:37:21;118336.50;;;-144.97;100.00
42415;BME280;28058;46.344;17.786;2023-04-28T01:39:48;118336.50;;;-144.97;100.00
42415;BME280;28058;46.344;17.786;2023-04-28T01:42:15;118336.50;;;-144.97;100.00
42415;BME280;28058;46.344;17.786;2023-04-28T01:44:42;118336.50;;;-144.97;100.00
42415;BME280;28058;46.344;17.786;2023-04-28T01:47:08;118336.50;;;-144.97;100.00
42415;BME280;28058;46.344;17.786;2023-04-28T01:49:35;118336.50;;;-144.97;100.00
42415;BME280;28058;46.344;17.786;2023-04-28T01:52:02;118336.50;;;-144.97;100.00
42415;BME280;28058;46.344;17.786;2023-04-28T01:54:28;118336.50;;;-144.97;100.00
42415;BME280;28058;46.344;17.786;2023-04-28T01:56:55;118336.50;;;-144.97;100.00
42415;BME280;28058;46.344;17.786;2023-04-28T01:59:22;118336.50;;;-144.97;100.00
42415;BME280;28058;46.344;17.786;2023-04-28T02:01:49;118336.50;;;-144.97;100.00
42415;BME280;28058;46.344;17.786;2023-04-28T02:04:16;118336.50;;;-144.97;100.00
42415;BME280;28058;46.344;17.786;2023-04-28T02:06:44;118336.50;;;-144.97;100.00
42415;BME280;28058;46.344;17.786;2023-04-28T02:09:10;118336.50;;;-144.97;100.00
42415;BME280;28058;46.344;17.786;2023-04-28T02:11:37;118336.50;;;-144.97;100.00
42415;BME280;28058;46.344;17.786;2023-04-28T02:14:04;118336.50;;;-144.97;100.00
42415;BME280;28058;46.344;17.786;2023-04-28T02:16:31;118336.50;;;-144.97;100.00
42415;BME280;28058;46.344;17.786;2023-04-28T02:18:59;118336.50;;;-144.97;100.00
42415;BME280;28058;46.344;17.786;2023-04-28T02:21:26;118336.50;;;-144.97;100.00
42415;BME280;28058;46.344;17.786;2023-04-28T02:23:53;118336.50;;;-144.97;100.00
42415;BME280;28058;46.344;17.786;2023-04-28T02:26:20;118336.50;;;-144.97;100.00
42415;BME280;28058;46.344;17.786;2023-04-28T02:28:48;118336.50;;;-144.97;100.00
42415;BME280;28058;46.344;17.786;2023-04-28T02:31:15;118336.50;;;-144.97;100.00
42415;BME280;28058;46.344;17.786;2023-04-28T02:33:42;118336.50;;;-144.97;100.00
42415;BME280;28058;46.344;17.786;2023-04-28T02:36:09;118336.50;;;-144.97;100.00
42415;BME280;28058;46.344;17.786;2023-04-28T02:38:36;118336.50;;;-144.97;100.00
42415;BME280;28058;46.344;17.786;2023-04-28T02:41:03;118336.50;;;-144.97;100.00
42415;BME280;28058;46.344;17.786;2023-04-28T02:43:30;118336.50;;;-144.97;100.00
42415;BME280;28058;46.344;17.786;2023-04-28T02:45:58;118336.50;;;-144.97;100.00
42415;BME280;28058;46.344;17.786;2023-04-28T02:48:25;118336.50;;;-144.97;100.00
42415;BME280;28058;46.344;17.786;2023-04-28T02:50:52;118336.50;;;-144.97;100.00
42415;BME280;28058;46.344;17.786;2023-04-28T02:53:19;118336.50;;;-144.97;100.00
42415;BME280;28058;46.344;17.786;2023-04-28T02:55:46;118336.50;;;-144.97;100.00
42415;BME280;28058;46.344;17.786;2023-04-28T02:58:13;118336.50;;;-144.97;100.00
42415;BME280;28058;46.344;17.786;2023-04-28T03:00:40;118336.50;;;-144.97;100.00
42415;BME280;28058;46.344;17.786;2023-04-28T03:03:07;118336.50;;;-144.97;100.00
42415;BME280;28058;46.344;17.786;2023-04-28T03:05:34;118336.50;;;-144.97;100.00
42415;BME280;28058;46.344;17.786;2023-04-28T03:08:01;118336.50;;;-144.97;100.00
42415;BME280;28058;46.344;17.786;2023-04-28T03:10:28;118336.50;;;-144.97;100.00
42415;BME280;28058;46.344;17.786;2023-04-28T03:12:54;118336.50;;;-144.97;100.00
42415;BME280;28058;46.344;17.786;2023-04-28T03:15:21;118336.50;;;-144.97;100.00
42415;BME280;28058;46.344;17.786;2023-04-28T03:17:48;118336.50;;;-144.97;100.00
42415;BME280;28058;46.344;17.786;2023-04-28T03:20:15;118336.50;;;-144.97;100.00
42415;BME280;28058;46.344;17.786;2023-04-28T03:22:42;118336.50;;;-144.97;100.00
42415;BME280;28058;46.344;17.786;2023-04-28T03:25:08;118336.50;;;-144.97;100.00
42415;BME280;28058;46.344;17.786;2023-04-28T03:27:35;118336.50;;;-144.97;100.00
42415;BME280;28058;46.344;17.786;2023-04-28T03:30:02;118336.50;;;-144.97;100.00
42415;BME280;28058;46.344;17.786;2023-04-28T03:32:29;118336.50;;;-144.97;100.00
42415;BME280;28058;46.344;17.786;2023-04-28T03:34:56;118336.50;;;-144.97;100.00
42415;BME280;28058;46.344;17.786;2023-04-28T03:37:23;118336.50;;;-144.97;100.00
42415;BME280;28058;46.344;17.786;2023-04-28T03:39:49;118336.50;;;-144.97;100.00
42415;BME280;28058;46.344;17.786;2023-04-28T03:42:16;118336.50;;;-144.97;100.00
42415;BME280;28058;46.344;17.786;2023-04-28T03:44:43;118336.50;;;-144.97;100.00
42415;BME280;28058;46.344;17.786;2023-04-28T03:47:10;118336.50;;;-144.97;100.00
42415;BME280;28058;46.344;17.786;2023-04-28T03:49:37;118336.50;;;-144.97;100.00
42415;BME280;28058;46.344;17.786;2023-04-28T03:52:03;118336.50;;;-144.97;100.00
42415;BME280;28058;46.344;17.786;2023-04-28T03:54:30;118336.50;;;-144.97;100.00
42415;BME280;28058;46.344;17.786;2023-04-28T03:56:57;118336.50;;;-144.97;100.00
42415;BME280;28058;46.344;17.786;2023-04-28T03:59:24;118336.50;;;-144.97;100.00
42415;BME280;28058;46.344;17.786;2023-04-28T04:01:52;118336.50;;;-144.97;100.00
42415;BME280;28058;46.344;17.786;2023-04-28T04:04:19;118336.50;;;-144.97;100.00
42415;BME280;28058;46.344;17.786;2023-04-28T04:06:46;118336.50;;;-144.97;100.00
42415;BME280;28058;46.344;17.786;2023-04-28T04:09:13;118336.50;;;-144.97;100.00
42415;BME280;28058;46.344;17.786;2023-04-28T04:11:40;118336.50;;;-144.97;100.00
42415;BME280;28058;46.344;17.786;2023-04-28T04:14:07;118336.50;;;-144.97;100.00
42415;BME280;28058;46.344;17.786;2023-04-28T04:16:34;118336.50;;;-144.97;100.00
42415;BME280;28058;46.344;17.786;2023-04-28T04:19:01;118336.50;;;-144.97;100.00
42415;BME280;28058;46.344;17.786;2023-04-28T04:21:28;118336.50;;;-144.97;100.00
42415;BME280;28058;46.344;17.786;2023-04-28T04:23:55;118336.50;;;-144.97;100.00
42415;BME280;28058;46.344;17.786;2023-04-28T04:26:22;118336.50;;;-144.97;100.00
42415;BME280;28058;46.344;17.786;2023-04-28T04:28:48;118336.50;;;-144.97;100.00
42415;BME280;28058;46.344;17.786;2023-04-28T04:31:15;118336.50;;;-144.97;100.00
42415;BME280;28058;46.344;17.786;2023-04-28T04:33:43;118336.50;;;-144.97;100.00
42415;BME280;28058;46.344;17.786;2023-04-28T04:36:10;118336.50;;;-144.97;100.00
42415;BME280;28058;46.344;17.786;2023-04-28T04:38:37;118336.50;;;-144.97;100.00
42415;BME280;28058;46.344;17.786;2023-04-28T04:41:04;118336.50;;;-144.97;100.00
42415;BME280;28058;46.344;17.786;2023-04-28T04:43:31;118336.50;;;-144.97;100.00
42415;BME280;28058;46.344;17.786;2023-04-28T04:45:57;118336.50;;;-144.97;100.00
42415;BME280;28058;46.344;17.786;2023-04-28T04:48:24;118336.50;;;-144.97;100.00
42415;BME280;28058;46.344;17.786;2023-04-28T04:50:51;118336.50;;;-144.97;100.00
42415;BME280;28058;46.344;17.786;2023-04-28T04:53:18;118336.50;;;-144.97;100.00
42415;BME280;28058;46.344;17.786;2023-04-28T04:55:45;118336.50;;;-144.97;99.68
42415;BME280;28058;46.344;17.786;2023-04-28T04:58:12;118336.50;;;-144.97;90.90
42415;BME280;28058;46.344;17.786;2023-04-28T05:00:39;118336.50;;;-144.97;83.22
42415;BME280;28058;46.344;17.786;2023-04-28T05:03:06;118336.50;;;-144.97;78.97
42415;BME280;28058;46.344;17.786;2023-04-28T05:05:34;118336.50;;;-144.97;78.36
42415;BME280;28058;46.344;17.786;2023-04-28T05:08:01;118336.50;;;-144.97;75.85
42415;BME280;28058;46.344;17.786;2023-04-28T05:10:29;118336.50;;;-144.97;72.32
42415;BME280;28058;46.344;17.786;2023-04-28T05:12:55;118336.50;;;-144.97;70.33
42415;BME280;28058;46.344;17.786;2023-04-28T05:15:22;118336.50;;;-144.97;66.99
42415;BME280;28058;46.344;17.786;2023-04-28T05:17:49;118336.50;;;-144.97;67.86
42415;BME280;28058;46.344;17.786;2023-04-28T05:20:16;118336.50;;;-144.97;64.63
42415;BME280;28058;46.344;17.786;2023-04-28T05:22:43;118336.50;;;-144.97;63.28
42415;BME280;28058;46.344;17.786;2023-04-28T05:25:09;118336.50;;;-144.97;63.11
42415;BME280;28058;46.344;17.786;2023-04-28T05:27:36;118336.50;;;-144.97;61.73
42415;BME280;28058;46.344;17.786;2023-04-28T05:30:08;118336.50;;;-144.97;61.01
42415;BME280;28058;46.344;17.786;2023-04-28T05:32:36;118336.50;;;-144.97;62.98
42415;BME280;28058;46.344;17.786;2023-04-28T05:35:03;118336.50;;;-144.97;60.75
42415;BME280;28058;46.344;17.786;2023-04-28T05:37:30;118336.50;;;-144.97;59.36
42415;BME280;28058;46.344;17.786;2023-04-28T05:39:57;118336.50;;;-144.97;57.78
42415;BME280;28058;46.344;17.786;2023-04-28T05:42:23;118336.50;;;-144.97;56.41
42415;BME280;28058;46.344;17.786;2023-04-28T05:44:50;118336.50;;;-144.97;53.68
42415;BME280;28058;46.344;17.786;2023-04-28T05:47:17;118336.50;;;-144.97;52.77
42415;BME280;28058;46.344;17.786;2023-04-28T05:49:43;118336.50;;;-144.97;54.77
42415;BME280;28058;46.344;17.786;2023-04-28T05:52:10;118336.50;;;-144.97;64.06
42415;BME280;28058;46.344;17.786;2023-04-28T05:54:37;118336.50;;;-144.97;67.29
42415;BME280;28058;46.344;17.786;2023-04-28T05:57:04;118336.50;;;-144.97;57.28
42415;BME280;28058;46.344;17.786;2023-04-28T05:59:31;118336.50;;;-144.97;49.88
42415;BME280;28058;46.344;17.786;2023-04-28T06:01:58;118336.50;;;-144.97;49.19
42415;BME280;28058;46.344;17.786;2023-04-28T06:04:25;118336.50;;;-144.97;46.65
42415;BME280;28058;46.344;17.786;2023-04-28T06:06:53;118336.50;;;-144.97;46.62
42415;BME280;28058;46.344;17.786;2023-04-28T06:09:19;118336.50;;;-144.97;45.56
42415;BME280;28058;46.344;17.786;2023-04-28T06:11:46;118336.50;;;-144.97;46.60
42415;BME280;28058;46.344;17.786;2023-04-28T06:14:13;118336.50;;;-144.97;46.37
42415;BME280;28058;46.344;17.786;2023-04-28T06:16:40;118336.50;;;-144.97;47.00
42415;BME280;28058;46.344;17.786;2023-04-28T06:19:07;118336.50;;;-144.97;43.79
42415;BME280;28058;46.344;17.786;2023-04-28T06:21:34;118336.50;;;-144.97;41.09
42415;BME280;28058;46.344;17.786;2023-04-28T06:24:01;118336.50;;;-144.97;41.01
42415;BME280;28058;46.344;17.786;2023-04-28T06:26:28;118336.50;;;-144.97;41.79
42415;BME280;28058;46.344;17.786;2023-04-28T06:28:54;118336.50;;;-144.97;39.60
42415;BME280;28058;46.344;17.786;2023-04-28T06:31:22;118336.50;;;-144.97;38.66
42415;BME280;28058;46.344;17.786;2023-04-28T06:33:48;118336.50;;;-144.97;38.08
42415;BME280;28058;46.344;17.786;2023-04-28T06:36:15;118336.50;;;-144.97;38.06
42415;BME280;28058;46.344;17.786;2023-04-28T06:38:44;118336.50;;;-144.97;39.53
42415;BME280;28058;46.344;17.786;2023-04-28T06:41:11;118336.50;;;-144.97;40.54
42415;BME280;28058;46.344;17.786;2023-04-28T06:43:38;118336.50;;;-144.97;41.45
42415;BME280;28058;46.344;17.786;2023-04-28T06:46:05;118336.50;;;-144.97;39.96
42415;BME280;28058;46.344;17.786;2023-04-28T06:48:31;118336.50;;;-144.97;38.22
42415;BME280;28058;46.344;17.786;2023-04-28T06:50:58;118336.50;;;-144.97;36.38
42415;BME280;28058;46.344;17.786;2023-04-28T06:53:25;118336.50;;;-144.97;36.45
42415;BME280;28058;46.344;17.786;2023-04-28T06:55:52;118336.50;;;-144.97;35.74
42415;BME280;28058;46.344;17.786;2023-04-28T06:58:19;118336.50;;;-144.97;34.89
42415;BME280;28058;46.344;17.786;2023-04-28T07:00:46;118336.50;;;-144.97;35.51
42415;BME280;28058;46.344;17.786;2023-04-28T07:03:13;118336.50;;;-144.97;34.86
42415;BME280;28058;46.344;17.786;2023-04-28T07:05:40;118336.50;;;-144.97;34.16
42415;BME280;28058;46.344;17.786;2023-04-28T07:08:06;118336.50;;;-144.97;32.61
42415;BME280;28058;46.344;17.786;2023-04-28T07:10:33;118336.50;;;-144.97;32.46
42415;BME280;28058;46.344;17.786;2023-04-28T07:13:00;118336.50;;;-144.97;31.68
42415;BME280;28058;46.344;17.786;2023-04-28T07:15:27;118336.50;;;-144.97;32.23
42415;BME280;28058;46.344;17.786;2023-04-28T07:17:54;118336.50;;;-144.97;31.33
42415;BME280;28058;46.344;17.786;2023-04-28T07:20:21;118336.50;;;-144.97;30.31
42415;BME280;28058;46.344;17.786;2023-04-28T07:22:48;118336.50;;;-144.97;30.66
42415;BME280;28058;46.344;17.786;2023-04-28T07:25:15;118336.50;;;-144.97;30.32
42415;BME280;28058;46.344;17.786;2023-04-28T07:27:42;118336.50;;;-144.97;30.23
42415;BME280;28058;46.344;17.786;2023-04-28T07:30:09;118336.50;;;-144.97;31.73
42415;BME280;28058;46.344;17.786;2023-04-28T07:32:52;118336.50;;;-144.97;32.02
42415;BME280;28058;46.344;17.786;2023-04-28T07:35:19;118336.50;;;-144.97;32.29
42415;BME280;28058;46.344;17.786;2023-04-28T07:37:46;118336.50;;;-144.97;33.31
42415;BME280;28058;46.344;17.786;2023-04-28T07:40:13;118336.50;;;-144.97;31.44
42415;BME280;28058;46.344;17.786;2023-04-28T07:42:41;118336.50;;;-144.97;30.30
42415;BME280;28058;46.344;17.786;2023-04-28T07:45:08;118336.50;;;-144.97;30.13
42415;BME280;28058;46.344;17.786;2023-04-28T07:47:35;118336.50;;;-144.97;30.36
42415;BME280;28058;46.344;17.786;2023-04-28T07:50:02;118336.50;;;-144.97;30.30
42415;BME280;28058;46.344;17.786;2023-04-28T07:52:31;118336.50;;;-144.97;29.91
42415;BME280;28058;46.344;17.786;2023-04-28T07:54:58;118336.50;;;-144.97;30.47
42415;BME280;28058;46.344;17.786;2023-04-28T07:57:25;118336.50;;;-144.97;29.89
42415;BME280;28058;46.344;17.786;2023-04-28T07:59:52;118336.50;;;-144.97;29.60
42415;BME280;28058;46.344;17.786;2023-04-28T08:02:18;118336.50;;;-144.97;30.36
42415;BME280;28058;46.344;17.786;2023-04-28T08:04:46;118336.50;;;-144.97;30.73
42415;BME280;28058;46.344;17.786;2023-04-28T08:07:13;118336.50;;;-144.97;29.71
42415;BME280;28058;46.344;17.786;2023-04-28T08:09:40;118336.50;;;-144.97;29.57
42415;BME280;28058;46.344;17.786;2023-04-28T08:12:09;118336.50;;;-144.97;29.05
42415;BME280;28058;46.344;17.786;2023-04-28T08:14:36;118336.50;;;-144.97;28.91
42415;BME280;28058;46.344;17.786;2023-04-28T08:17:03;118336.50;;;-144.97;28.72
42415;BME280;28058;46.344;17.786;2023-04-28T08:19:30;118336.50;;;-144.97;27.81
42415;BME280;28058;46.344;17.786;2023-04-28T08:21:56;118336.50;;;-144.97;28.72
42415;BME280;28058;46.344;17.786;2023-04-28T08:24:25;118336.50;;;-144.97;28.44
42415;BME280;28058;46.344;17.786;2023-04-28T08:26:55;118336.50;;;-144.97;27.59
42415;BME280;28058;46.344;17.786;2023-04-28T08:29:22;118336.50;;;-144.97;27.91
42415;BME280;28058;46.344;17.786;2023-04-28T08:31:49;118336.50;;;-144.97;28.14
42415;BME280;28058;46.344;17.786;2023-04-28T08:34:16;118336.50;;;-144.97;28.64
42415;BME280;28058;46.344;17.786;2023-04-28T08:36:44;118336.50;;;-144.97;27.85
42415;BME280;28058;46.344;17.786;2023-04-28T08:39:11;118336.50;;;-144.97;27.52
42415;BME280;28058;46.344;17.786;2023-04-28T08:41:39;118336.50;;;-144.97;27.56
42415;BME280;28058;46.344;17.786;2023-04-28T08:44:09;118336.50;;;-144.97;27.50
42415;BME280;28058;46.344;17.786;2023-04-28T08:46:40;118336.50;;;-144.97;28.22
42415;BME280;28058;46.344;17.786;2023-04-28T08:49:14;118336.50;;;-144.97;27.93
42415;BME280;28058;46.344;17.786;2023-04-28T08:51:45;118336.50;;;-144.97;28.33
42415;BME280;28058;46.344;17.786;2023-04-28T08:54:13;118336.50;;;-144.97;27.92
42415;BME280;28058;46.344;17.786;2023-04-28T08:56:52;118336.50;;;-144.97;27.93
42415;BME280;28058;46.344;17.786;2023-04-28T08:59:19;118336.50;;;-144.97;27.93
42415;BME280;28058;46.344;17.786;2023-04-28T09:01:47;118336.50;;;-144.97;28.33
42415;BME280;28058;46.344;17.786;2023-04-28T09:04:18;118336.50;;;-144.97;27.70
42415;BME280;28058;46.344;17.786;2023-04-28T09:06:47;118336.50;;;-144.97;29.46
42415;BME280;28058;46.344;17.786;2023-04-28T09:09:19;118336.50;;;-144.97;29.99
42415;BME280;28058;46.344;17.786;2023-04-28T09:12:04;118336.50;;;-144.97;30.38
42415;BME280;28058;46.344;17.786;2023-04-28T09:14:32;118336.50;;;-144.97;30.38
42415;BME280;28058;46.344;17.786;2023-04-28T09:17:08;118336.50;;;-144.97;29.97
42415;BME280;28058;46.344;17.786;2023-04-28T09:19:35;118336.50;;;-144.97;30.95
42415;BME280;28058;46.344;17.786;2023-04-28T09:22:03;118336.50;;;-144.97;30.98
42415;BME280;28058;46.344;17.786;2023-04-28T09:24:43;118336.50;;;-144.97;29.87
42415;BME280;28058;46.344;17.786;2023-04-28T09:27:10;118336.50;;;-144.97;29.95
42415;BME280;28058;46.344;17.786;2023-04-28T09:29:37;118336.50;;;-144.97;29.62
42415;BME280;28058;46.344;17.786;2023-04-28T09:32:14;118336.50;;;-144.97;30.10
42415;BME280;28058;46.344;17.786;2023-04-28T09:34:42;118336.50;;;-144.97;29.21
42415;BME280;28058;46.344;17.786;2023-04-28T09:37:15;118336.50;;;-144.97;29.93
42415;BME280;28058;46.344;17.786;2023-04-28T09:39:43;118336.50;;;-144.97;30.27
42415;BME280;28058;46.344;17.786;2023-04-28T09:42:12;118336.50;;;-144.97;30.60
42415;BME280;28058;46.344;17.786;2023-04-28T09:44:56;118336.50;;;-144.97;30.52
42415;BME280;28058;46.344;17.786;2023-04-28T09:47:23;118336.50;;;-144.97;30.50
42415;BME280;28058;46.344;17.786;2023-04-28T09:49:54;118336.50;;;-144.97;31.51
42415;BME280;28058;46.344;17.786;2023-04-28T09:52:22;118336.50;;;-144.97;31.20
42415;BME280;28058;46.344;17.786;2023-04-28T09:54:50;118336.50;;;-144.97;30.89
42415;BME280;28058;46.344;17.786;2023-04-28T09:57:17;118336.50;;;-144.97;31.63
42415;BME280;28058;46.344;17.786;2023-04-28T09:59:48;118336.50;;;-144.97;30.10
42415;BME280;28058;46.344;17.786;2023-04-28T10:02:16;118336.50;;;-144.97;31.09
42415;BME280;28058;46.344;17.786;2023-04-28T10:05:03;118336.50;;;-144.97;30.48
42415;BME280;28058;46.344;17.786;2023-04-28T10:07:31;118336.50;;;-144.97;30.94
42415;BME280;28058;46.344;17.786;2023-04-28T10:10:01;118336.50;;;-144.97;31.38
42415;BME280;28058;46.344;17.786;2023-04-28T10:12:29;118336.50;;;-144.97;31.09
42415;BME280;28058;46.344;17.786;2023-04-28T10:14:58;118336.50;;;-144.97;31.67
42415;BME280;28058;46.344;17.786;2023-04-28T10:17:25;118336.50;;;-144.97;31.87
42415;BME280;28058;46.344;17.786;2023-04-28T10:19:55;118336.50;;;-144.97;32.29
42415;BME280;28058;46.344;17.786;2023-04-28T10:27:38;118336.50;;;-144.97;32.30
42415;BME280;28058;46.344;17.786;2023-04-28T10:30:13;118336.50;;;-144.97;31.75
42415;BME280;28058;46.344;17.786;2023-04-28T10:35:39;118336.50;;;-144.97;32.27
42415;BME280;28058;46.344;17.786;2023-04-28T10:43:48;118336.50;;;-144.97;31.74
42415;BME280;28058;46.344;17.786;2023-04-28T10:45:58;118336.50;;;-144.97;32.42
42415;BME280;28058;46.344;17.786;2023-04-28T10:58:35;118336.50;;;-144.97;31.79
42415;BME280;28058;46.344;17.786;2023-04-28T11:04:05;118336.50;;;-144.97;32.28
42415;BME280;28058;46.344;17.786;2023-04-28T11:06:43;118336.50;;;-144.97;32.62
42415;BME280;28058;46.344;17.786;2023-04-28T11:11:38;118336.50;;;-144.97;32.04
42415;BME280;28058;46.344;17.786;2023-04-28T11:17:00;118336.50;;;-144.97;32.55
42415;BME280;28058;46.344;17.786;2023-04-28T11:19:35;118336.50;;;-144.97;32.29
42415;BME280;28058;46.344;17.786;2023-04-28T11:22:03;118336.50;;;-144.97;31.99
42415;BME280;28058;46.344;17.786;2023-04-28T11:24:35;118336.50;;;-144.97;32.09
42415;BME280;28058;46.344;17.786;2023-04-28T11:27:02;118336.50;;;-144.97;32.51
42415;BME280;28058;46.344;17.786;2023-04-28T11:29:33;118336.50;;;-144.97;31.77
42415;BME280;28058;46.344;17.786;2023-04-28T11:32:01;118336.50;;;-144.97;32.07
42415;BME280;28058;46.344;17.786;2023-04-28T11:34:28;118336.50;;;-144.97;32.16
42415;BME280;28058;46.344;17.786;2023-04-28T11:36:55;118336.50;;;-144.97;32.21
42415;BME280;28058;46.344;17.786;2023-04-28T11:39:31;118336.50;;;-144.97;32.20
42415;BME280;28058;46.344;17.786;2023-04-28T11:41:59;118336.50;;;-144.97;32.05
42415;BME280;28058;46.344;17.786;2023-04-28T11:44:28;118336.50;;;-144.97;33.20
42415;BME280;28058;46.344;17.786;2023-04-28T11:46:56;118336.50;;;-144.97;32.46
42415;BME280;28058;46.344;17.786;2023-04-28T11:49:45;118336.50;;;-144.97;32.52
42415;BME280;28058;46.344;17.786;2023-04-28T11:52:12;118336.50;;;-144.97;32.49
42415;BME280;28058;46.344;17.786;2023-04-28T11:54:39;118336.50;;;-144.97;33.14
42415;BME280;28058;46.344;17.786;2023-04-28T11:57:19;118336.50;;;-144.97;32.79
42415;BME280;28058;46.344;17.786;2023-04-28T11:59:47;118336.50;;;-144.97;32.82
42415;BME280;28058;46.344;17.786;2023-04-28T12:02:22;118336.50;;;-144.97;33.07
42415;BME280;28058;46.344;17.786;2023-04-28T12:04:50;118336.50;;;-144.97;33.40
42415;BME280;28058;46.344;17.786;2023-04-28T12:07:17;118336.50;;;-144.97;33.39
42415;BME280;28058;46.344;17.786;2023-04-28T12:09:46;118336.50;;;-144.97;33.31
42415;BME280;28058;46.344;17.786;2023-04-28T12:12:29;118336.50;;;-144.97;33.21
42415;BME280;28058;46.344;17.786;2023-04-28T12:15:05;118336.50;;;-144.97;33.46
42415;BME280;28058;46.344;17.786;2023-04-28T12:17:33;118336.50;;;-144.97;33.63
42415;BME280;28058;46.344;17.786;2023-04-28T12:20:01;118336.50;;;-144.97;33.26
42415;BME280;28058;46.344;17.786;2023-04-28T12:22:29;118336.50;;;-144.97;33.34
42415;BME280;28058;46.344;17.786;2023-04-28T12:25:17;118336.50;;;-144.97;33.28
42415;BME280;28058;46.344;17.786;2023-04-28T12:28:06;118336.50;;;-144.97;32.76
42415;BME280;28058;46.344;17.786;2023-04-28T12:30:34;118336.50;;;-144.97;33.54
42415;BME280;28058;46.344;17.786;2023-04-28T12:33:01;118336.50;;;-144.97;32.73
42415;BME280;28058;46.344;17.786;2023-04-28T12:35:28;118336.50;;;-144.97;33.13
42415;BME280;28058;46.344;17.786;2023-04-28T12:37:55;118336.50;;;-144.97;34.01
42415;BME280;28058;46.344;17.786;2023-04-28T12:40:24;118336.50;;;-144.97;33.51
42415;BME280;28058;46.344;17.786;2023-04-28T12:42:52;118336.50;;;-144.97;32.65
42415;BME280;28058;46.344;17.786;2023-04-28T12:45:19;118336.50;;;-144.97;32.73
42415;BME280;28058;46.344;17.786;2023-04-28T12:47:46;118336.50;;;-144.97;33.60
42415;BME280;28058;46.344;17.786;2023-04-28T12:50:13;118336.50;;;-144.97;33.58
42415;BME280;28058;46.344;17.786;2023-04-28T12:52:40;118336.50;;;-144.97;33.27